sensor_id;sensor_type;location;lat;lon;timestamp;P1;durP1;ratioP1;P2;durP2;ratioP2
11447;SDS011;43755;49.736;8.734;2023-02-11T00:00:38;34.88;;;22.65;;
11447;SDS011;43755;49.736;8.734;2023-02-11T00:02:40;34.05;;;23.13;;
11447;SDS011;43755;49.736;8.734;2023-02-11T00:04:42;32.70;;;23.13;;
11447;SDS011;43755;49.736;8.734;2023-02-11T00:06:43;34.83;;;23.30;;
11447;SDS011;43755;49.736;8.734;2023-02-11T00:08:44;37.10;;;23.80;;
11447;SDS011;43755;49.736;8.734;2023-02-11T00:10:51;35.60;;;23.95;;
11447;SDS011;43755;49.736;8.734;2023-02-11T00:12:53;33.95;;;23.55;;
11447;SDS011;43755;49.736;8.734;2023-02-11T00:14:54;35.50;;;23.88;;
11447;SDS011;43755;49.736;8.734;2023-02-11T00:16:55;36.13;;;22.80;;
11447;SDS011;43755;49.736;8.734;2023-02-11T00:18:57;31.92;;;23.27;;
11447;SDS011;43755;49.736;8.734;2023-02-11T00:20:59;33.25;;;23.02;;
11447;SDS011;43755;49.736;8.734;2023-02-11T00:23:05;31.65;;;22.90;;
11447;SDS011;43755;49.736;8.734;2023-02-11T00:25:06;31.70;;;22.98;;
11447;SDS011;43755;49.736;8.734;2023-02-11T00:27:09;33.58;;;23.38;;
11447;SDS011;43755;49.736;8.734;2023-02-11T00:29:11;35.03;;;22.63;;
11447;SDS011;43755;49.736;8.734;2023-02-11T00:31:12;35.67;;;24.23;;
11447;SDS011;43755;49.736;8.734;2023-02-11T00:33:15;37.97;;;23.30;;
11447;SDS011;43755;49.736;8.734;2023-02-11T00:35:16;33.30;;;22.95;;
11447;SDS011;43755;49.736;8.734;2023-02-11T00:37:18;32.53;;;22.55;;
11447;SDS011;43755;49.736;8.734;2023-02-11T00:39:19;33.75;;;23.90;;
11447;SDS011;43755;49.736;8.734;2023-02-11T00:41:20;30.75;;;21.98;;
11447;SDS011;43755;49.736;8.734;2023-02-11T00:43:23;32.50;;;23.20;;
11447;SDS011;43755;49.736;8.734;2023-02-11T00:45:25;31.55;;;22.58;;
11447;SDS011;43755;49.736;8.734;2023-02-11T00:47:27;32.35;;;23.48;;
11447;SDS011;43755;49.736;8.734;2023-02-11T00:49:29;32.20;;;22.45;;
11447;SDS011;43755;49.736;8.734;2023-02-11T00:51:30;34.78;;;22.60;;
11447;SDS011;43755;49.736;8.734;2023-02-11T00:53:32;32.60;;;21.85;;
11447;SDS011;43755;49.736;8.734;2023-02-11T00:55:34;36.25;;;22.85;;
11447;SDS011;43755;49.736;8.734;2023-02-11T00:57:35;33.20;;;22.55;;
11447;SDS011;43755;49.736;8.734;2023-02-11T00:59:38;31.67;;;22.98;;
11447;SDS011;43755;49.736;8.734;2023-02-11T01:01:40;33.15;;;22.35;;
11447;SDS011;43755;49.736;8.734;2023-02-11T01:03:41;33.13;;;22.67;;
11447;SDS011;43755;49.736;8.734;2023-02-11T01:05:43;32.08;;;21.73;;
11447;SDS011;43755;49.736;8.734;2023-02-11T01:07:44;32.65;;;21.40;;
11447;SDS011;43755;49.736;8.734;2023-02-11T01:09:46;30.95;;;22.42;;
11447;SDS011;43755;49.736;8.734;2023-02-11T01:11:47;30.42;;;21.65;;
11447;SDS011;43755;49.736;8.734;2023-02-11T01:13:49;32.50;;;21.52;;
11447;SDS011;43755;49.736;8.734;2023-02-11T01:15:52;30.65;;;21.30;;
11447;SDS011;43755;49.736;8.734;2023-02-11T01:17:54;30.17;;;21.55;;
11447;SDS011;43755;49.736;8.734;2023-02-11T01:19:56;30.27;;;20.98;;
11447;SDS011;43755;49.736;8.734;2023-02-11T01:21:57;31.92;;;22.42;;
11447;SDS011;43755;49.736;8.734;2023-02-11T01:23:59;29.00;;;21.23;;
11447;SDS011;43755;49.736;8.734;2023-02-11T01:26:00;29.98;;;21.15;;
11447;SDS011;43755;49.736;8.734;2023-02-11T01:28:02;30.58;;;21.48;;
11447;SDS011;43755;49.736;8.734;2023-02-11T01:30:04;31.08;;;20.90;;
11447;SDS011;43755;49.736;8.734;2023-02-11T01:32:08;30.15;;;21.52;;
11447;SDS011;43755;49.736;8.734;2023-02-11T01:34:09;29.05;;;20.65;;
11447;SDS011;43755;49.736;8.734;2023-02-11T01:36:10;28.58;;;20.40;;
11447;SDS011;43755;49.736;8.734;2023-02-11T01:38:18;30.05;;;20.95;;
11447;SDS011;43755;49.736;8.734;2023-02-11T01:40:20;27.13;;;19.33;;
11447;SDS011;43755;49.736;8.734;2023-02-11T01:42:21;27.50;;;19.52;;
11447;SDS011;43755;49.736;8.734;2023-02-11T01:44:24;26.17;;;19.33;;
11447;SDS011;43755;49.736;8.734;2023-02-11T01:46:29;29.90;;;20.13;;
11447;SDS011;43755;49.736;8.734;2023-02-11T01:48:34;27.83;;;19.77;;
11447;SDS011;43755;49.736;8.734;2023-02-11T01:50:38;29.48;;;20.25;;
11447;SDS011;43755;49.736;8.734;2023-02-11T01:52:41;25.92;;;19.20;;
11447;SDS011;43755;49.736;8.734;2023-02-11T01:54:46;27.98;;;19.38;;
11447;SDS011;43755;49.736;8.734;2023-02-11T01:57:07;27.33;;;19.52;;
11447;SDS011;43755;49.736;8.734;2023-02-11T01:59:26;27.45;;;19.70;;
11447;SDS011;43755;49.736;8.734;2023-02-11T02:01:32;25.77;;;19.40;;
11447;SDS011;43755;49.736;8.734;2023-02-11T02:03:36;28.08;;;19.52;;
11447;SDS011;43755;49.736;8.734;2023-02-11T02:05:42;25.67;;;19.92;;
11447;SDS011;43755;49.736;8.734;2023-02-11T02:07:53;28.70;;;19.75;;
11447;SDS011;43755;49.736;8.734;2023-02-11T02:10:02;29.13;;;19.67;;
11447;SDS011;43755;49.736;8.734;2023-02-11T02:12:07;28.20;;;19.38;;
11447;SDS011;43755;49.736;8.734;2023-02-11T02:14:09;26.10;;;18.50;;
11447;SDS011;43755;49.736;8.734;2023-02-11T02:16:11;29.27;;;19.75;;
11447;SDS011;43755;49.736;8.734;2023-02-11T02:23:21;25.48;;;18.80;;
11447;SDS011;43755;49.736;8.734;2023-02-11T02:25:47;28.48;;;18.90;;
11447;SDS011;43755;49.736;8.734;2023-02-11T02:28:10;25.80;;;18.77;;
11447;SDS011;43755;49.736;8.734;2023-02-11T02:35:39;25.17;;;18.30;;
11447;SDS011;43755;49.736;8.734;2023-02-11T02:37:46;26.90;;;18.05;;
11447;SDS011;43755;49.736;8.734;2023-02-11T02:39:56;25.48;;;18.92;;
11447;SDS011;43755;49.736;8.734;2023-02-11T02:42:03;27.50;;;18.08;;
11447;SDS011;43755;49.736;8.734;2023-02-11T02:44:05;26.75;;;17.90;;
11447;SDS011;43755;49.736;8.734;2023-02-11T02:46:09;26.10;;;19.08;;
11447;SDS011;43755;49.736;8.734;2023-02-11T02:48:22;26.25;;;18.80;;
11447;SDS011;43755;49.736;8.734;2023-02-11T02:50:27;25.17;;;17.75;;
11447;SDS011;43755;49.736;8.734;2023-02-11T02:52:33;25.13;;;18.70;;
11447;SDS011;43755;49.736;8.734;2023-02-11T02:57:24;26.52;;;17.55;;
11447;SDS011;43755;49.736;8.734;2023-02-11T02:59:35;25.35;;;17.38;;
11447;SDS011;43755;49.736;8.734;2023-02-11T03:01:47;25.35;;;17.55;;
11447;SDS011;43755;49.736;8.734;2023-02-11T03:04:00;27.95;;;17.83;;
11447;SDS011;43755;49.736;8.734;2023-02-11T03:06:09;24.30;;;16.90;;
11447;SDS011;43755;49.736;8.734;2023-02-11T03:08:14;23.65;;;17.65;;
11447;SDS011;43755;49.736;8.734;2023-02-11T03:10:20;23.92;;;17.73;;
11447;SDS011;43755;49.736;8.734;2023-02-11T03:12:25;22.85;;;17.63;;
11447;SDS011;43755;49.736;8.734;2023-02-11T03:14:30;27.63;;;17.98;;
11447;SDS011;43755;49.736;8.734;2023-02-11T03:16:33;24.83;;;17.25;;
11447;SDS011;43755;49.736;8.734;2023-02-11T03:18:38;25.83;;;17.70;;
11447;SDS011;43755;49.736;8.734;2023-02-11T03:20:43;24.27;;;17.73;;
11447;SDS011;43755;49.736;8.734;2023-02-11T03:22:49;23.10;;;17.27;;
11447;SDS011;43755;49.736;8.734;2023-02-11T03:24:55;25.60;;;16.38;;
11447;SDS011;43755;49.736;8.734;2023-02-11T03:26:58;22.55;;;16.95;;
11447;SDS011;43755;49.736;8.734;2023-02-11T03:29:05;25.77;;;17.20;;
11447;SDS011;43755;49.736;8.734;2023-02-11T03:31:17;23.35;;;17.35;;
11447;SDS011;43755;49.736;8.734;2023-02-11T03:33:28;24.58;;;18.15;;
11447;SDS011;43755;49.736;8.734;2023-02-11T03:35:37;23.92;;;17.48;;
11447;SDS011;43755;49.736;8.734;2023-02-11T03:37:42;21.35;;;16.95;;
11447;SDS011;43755;49.736;8.734;2023-02-11T03:39:52;24.98;;;16.55;;
11447;SDS011;43755;49.736;8.734;2023-02-11T03:41:56;24.83;;;17.42;;
11447;SDS011;43755;49.736;8.734;2023-02-11T03:44:00;25.55;;;17.27;;
11447;SDS011;43755;49.736;8.734;2023-02-11T03:46:02;23.45;;;17.45;;
11447;SDS011;43755;49.736;8.734;2023-02-11T03:48:05;25.30;;;18.20;;
11447;SDS011;43755;49.736;8.734;2023-02-11T03:50:12;24.15;;;17.23;;
11447;SDS011;43755;49.736;8.734;2023-02-11T03:52:16;24.10;;;17.60;;
11447;SDS011;43755;49.736;8.734;2023-02-11T03:54:20;27.13;;;19.10;;
11447;SDS011;43755;49.736;8.734;2023-02-11T03:56:29;22.30;;;17.10;;
11447;SDS011;43755;49.736;8.734;2023-02-11T03:58:35;23.75;;;17.85;;
11447;SDS011;43755;49.736;8.734;2023-02-11T04:00:38;24.83;;;18.08;;
11447;SDS011;43755;49.736;8.734;2023-02-11T04:02:41;23.73;;;17.77;;
11447;SDS011;43755;49.736;8.734;2023-02-11T04:04:43;23.95;;;17.45;;
11447;SDS011;43755;49.736;8.734;2023-02-11T04:06:45;26.35;;;17.63;;
11447;SDS011;43755;49.736;8.734;2023-02-11T04:08:47;25.98;;;17.58;;
11447;SDS011;43755;49.736;8.734;2023-02-11T04:10:48;27.10;;;18.55;;
11447;SDS011;43755;49.736;8.734;2023-02-11T04:12:51;26.17;;;18.35;;
11447;SDS011;43755;49.736;8.734;2023-02-11T04:14:52;28.27;;;19.10;;
11447;SDS011;43755;49.736;8.734;2023-02-11T04:16:54;26.63;;;18.25;;
11447;SDS011;43755;49.736;8.734;2023-02-11T04:18:55;25.73;;;17.98;;
11447;SDS011;43755;49.736;8.734;2023-02-11T04:20:57;25.80;;;18.27;;
11447;SDS011;43755;49.736;8.734;2023-02-11T04:22:58;26.88;;;18.25;;
11447;SDS011;43755;49.736;8.734;2023-02-11T04:24:59;26.60;;;18.50;;
11447;SDS011;43755;49.736;8.734;2023-02-11T04:27:01;25.38;;;19.23;;
11447;SDS011;43755;49.736;8.734;2023-02-11T04:29:04;26.15;;;18.58;;
11447;SDS011;43755;49.736;8.734;2023-02-11T04:31:05;26.23;;;19.25;;
11447;SDS011;43755;49.736;8.734;2023-02-11T04:33:07;25.50;;;19.00;;
11447;SDS011;43755;49.736;8.734;2023-02-11T04:35:08;28.20;;;20.20;;
11447;SDS011;43755;49.736;8.734;2023-02-11T04:37:10;30.00;;;19.88;;
11447;SDS011;43755;49.736;8.734;2023-02-11T04:39:11;27.08;;;19.30;;
11447;SDS011;43755;49.736;8.734;2023-02-11T04:41:13;28.38;;;19.48;;
11447;SDS011;43755;49.736;8.734;2023-02-11T04:43:14;26.52;;;19.40;;
11447;SDS011;43755;49.736;8.734;2023-02-11T04:45:17;29.00;;;19.77;;
11447;SDS011;43755;49.736;8.734;2023-02-11T04:47:18;29.58;;;19.55;;
11447;SDS011;43755;49.736;8.734;2023-02-11T04:49:20;27.80;;;18.73;;
11447;SDS011;43755;49.736;8.734;2023-02-11T04:51:21;28.30;;;19.95;;
11447;SDS011;43755;49.736;8.734;2023-02-11T04:53:23;31.75;;;20.65;;
11447;SDS011;43755;49.736;8.734;2023-02-11T04:55:24;26.15;;;18.52;;
11447;SDS011;43755;49.736;8.734;2023-02-11T04:57:26;28.88;;;20.15;;
11447;SDS011;43755;49.736;8.734;2023-02-11T04:59:27;27.73;;;19.13;;
11447;SDS011;43755;49.736;8.734;2023-02-11T05:01:30;29.52;;;19.92;;
11447;SDS011;43755;49.736;8.734;2023-02-11T05:03:32;28.73;;;20.95;;
11447;SDS011;43755;49.736;8.734;2023-02-11T05:05:33;25.85;;;19.73;;
11447;SDS011;43755;49.736;8.734;2023-02-11T05:07:38;24.88;;;19.48;;
11447;SDS011;43755;49.736;8.734;2023-02-11T05:09:39;28.08;;;20.10;;
11447;SDS011;43755;49.736;8.734;2023-02-11T05:11:40;32.60;;;20.90;;
11447;SDS011;43755;49.736;8.734;2023-02-11T05:13:42;29.10;;;20.77;;
11447;SDS011;43755;49.736;8.734;2023-02-11T05:15:43;26.35;;;19.13;;
11447;SDS011;43755;49.736;8.734;2023-02-11T05:17:46;27.77;;;19.35;;
11447;SDS011;43755;49.736;8.734;2023-02-11T05:19:48;33.78;;;19.45;;
11447;SDS011;43755;49.736;8.734;2023-02-11T05:21:49;28.33;;;20.30;;
11447;SDS011;43755;49.736;8.734;2023-02-11T05:23:52;29.20;;;19.88;;
11447;SDS011;43755;49.736;8.734;2023-02-11T05:25:53;25.50;;;19.65;;
11447;SDS011;43755;49.736;8.734;2023-02-11T05:27:55;30.75;;;19.60;;
11447;SDS011;43755;49.736;8.734;2023-02-11T05:29:56;32.50;;;20.92;;
11447;SDS011;43755;49.736;8.734;2023-02-11T05:31:58;26.58;;;18.88;;
11447;SDS011;43755;49.736;8.734;2023-02-11T05:34:01;27.75;;;20.05;;
11447;SDS011;43755;49.736;8.734;2023-02-11T05:36:04;26.48;;;20.27;;
11447;SDS011;43755;49.736;8.734;2023-02-11T05:38:07;25.73;;;18.83;;
11447;SDS011;43755;49.736;8.734;2023-02-11T05:40:08;24.77;;;18.27;;
11447;SDS011;43755;49.736;8.734;2023-02-11T05:42:10;28.90;;;19.73;;
11447;SDS011;43755;49.736;8.734;2023-02-11T05:44:12;26.23;;;19.38;;
11447;SDS011;43755;49.736;8.734;2023-02-11T05:46:13;28.02;;;19.27;;
11447;SDS011;43755;49.736;8.734;2023-02-11T05:48:14;26.55;;;19.13;;
11447;SDS011;43755;49.736;8.734;2023-02-11T05:50:18;29.60;;;19.83;;
11447;SDS011;43755;49.736;8.734;2023-02-11T05:52:19;28.90;;;19.90;;
11447;SDS011;43755;49.736;8.734;2023-02-11T05:54:21;30.25;;;19.75;;
11447;SDS011;43755;49.736;8.734;2023-02-11T05:56:22;29.13;;;19.92;;
11447;SDS011;43755;49.736;8.734;2023-02-11T05:58:24;28.70;;;18.83;;
11447;SDS011;43755;49.736;8.734;2023-02-11T06:00:25;29.35;;;18.65;;
11447;SDS011;43755;49.736;8.734;2023-02-11T06:02:27;26.35;;;19.60;;
11447;SDS011;43755;49.736;8.734;2023-02-11T06:04:28;27.77;;;18.70;;
11447;SDS011;43755;49.736;8.734;2023-02-11T06:06:31;24.13;;;18.75;;
11447;SDS011;43755;49.736;8.734;2023-02-11T06:08:32;26.88;;;18.70;;
11447;SDS011;43755;49.736;8.734;2023-02-11T06:10:33;25.17;;;17.95;;
11447;SDS011;43755;49.736;8.734;2023-02-11T06:12:35;24.90;;;18.60;;
11447;SDS011;43755;49.736;8.734;2023-02-11T06:14:37;25.52;;;19.20;;
11447;SDS011;43755;49.736;8.734;2023-02-11T06:16:39;27.45;;;19.23;;
11447;SDS011;43755;49.736;8.734;2023-02-11T06:18:40;29.38;;;19.45;;
11447;SDS011;43755;49.736;8.734;2023-02-11T06:20:42;26.05;;;18.73;;
11447;SDS011;43755;49.736;8.734;2023-02-11T06:22:44;28.80;;;19.08;;
11447;SDS011;43755;49.736;8.734;2023-02-11T06:24:46;23.30;;;17.13;;
11447;SDS011;43755;49.736;8.734;2023-02-11T06:26:47;24.35;;;18.65;;
11447;SDS011;43755;49.736;8.734;2023-02-11T06:28:49;27.85;;;18.45;;
11447;SDS011;43755;49.736;8.734;2023-02-11T06:30:50;26.25;;;18.63;;
11447;SDS011;43755;49.736;8.734;2023-02-11T06:32:51;27.38;;;19.02;;
11447;SDS011;43755;49.736;8.734;2023-02-11T06:34:53;22.50;;;17.73;;
11447;SDS011;43755;49.736;8.734;2023-02-11T06:36:55;25.67;;;18.83;;
11447;SDS011;43755;49.736;8.734;2023-02-11T06:38:57;27.48;;;19.17;;
11447;SDS011;43755;49.736;8.734;2023-02-11T06:40:59;27.75;;;18.88;;
11447;SDS011;43755;49.736;8.734;2023-02-11T06:43:00;25.85;;;19.23;;
11447;SDS011;43755;49.736;8.734;2023-02-11T06:45:02;28.85;;;19.67;;
11447;SDS011;43755;49.736;8.734;2023-02-11T06:47:05;28.13;;;19.13;;
11447;SDS011;43755;49.736;8.734;2023-02-11T06:49:06;27.83;;;19.85;;
11447;SDS011;43755;49.736;8.734;2023-02-11T06:51:08;27.63;;;18.73;;
11447;SDS011;43755;49.736;8.734;2023-02-11T06:53:12;26.30;;;19.38;;
11447;SDS011;43755;49.736;8.734;2023-02-11T06:55:14;25.83;;;18.60;;
11447;SDS011;43755;49.736;8.734;2023-02-11T06:57:16;23.30;;;18.02;;
11447;SDS011;43755;49.736;8.734;2023-02-11T06:59:17;27.08;;;18.70;;
11447;SDS011;43755;49.736;8.734;2023-02-11T07:01:20;21.70;;;17.40;;
11447;SDS011;43755;49.736;8.734;2023-02-11T07:03:22;26.48;;;19.00;;
11447;SDS011;43755;49.736;8.734;2023-02-11T07:05:24;24.90;;;18.70;;
11447;SDS011;43755;49.736;8.734;2023-02-11T07:07:26;26.98;;;18.80;;
11447;SDS011;43755;49.736;8.734;2023-02-11T07:09:27;27.85;;;18.98;;
11447;SDS011;43755;49.736;8.734;2023-02-11T07:11:30;25.85;;;19.05;;
11447;SDS011;43755;49.736;8.734;2023-02-11T07:13:32;26.67;;;18.52;;
11447;SDS011;43755;49.736;8.734;2023-02-11T07:15:35;28.42;;;19.20;;
11447;SDS011;43755;49.736;8.734;2023-02-11T07:17:36;25.08;;;19.05;;
11447;SDS011;43755;49.736;8.734;2023-02-11T07:19:38;26.98;;;18.02;;
11447;SDS011;43755;49.736;8.734;2023-02-11T07:21:39;23.23;;;17.75;;
11447;SDS011;43755;49.736;8.734;2023-02-11T07:23:41;28.38;;;18.73;;
11447;SDS011;43755;49.736;8.734;2023-02-11T07:25:42;27.45;;;19.38;;
11447;SDS011;43755;49.736;8.734;2023-02-11T07:27:45;26.05;;;19.45;;
11447;SDS011;43755;49.736;8.734;2023-02-11T07:29:47;24.83;;;18.27;;
11447;SDS011;43755;49.736;8.734;2023-02-11T07:31:48;28.05;;;18.63;;
11447;SDS011;43755;49.736;8.734;2023-02-11T07:33:50;26.65;;;18.95;;
11447;SDS011;43755;49.736;8.734;2023-02-11T07:35:52;24.27;;;18.30;;
11447;SDS011;43755;49.736;8.734;2023-02-11T07:37:55;24.23;;;18.00;;
11447;SDS011;43755;49.736;8.734;2023-02-11T07:39:56;23.88;;;18.15;;
11447;SDS011;43755;49.736;8.734;2023-02-11T07:41:57;24.20;;;18.45;;
11447;SDS011;43755;49.736;8.734;2023-02-11T07:44:00;24.52;;;18.55;;
11447;SDS011;43755;49.736;8.734;2023-02-11T07:46:02;27.75;;;19.27;;
11447;SDS011;43755;49.736;8.734;2023-02-11T07:48:04;24.65;;;18.75;;
11447;SDS011;43755;49.736;8.734;2023-02-11T07:50:06;26.40;;;18.75;;
11447;SDS011;43755;49.736;8.734;2023-02-11T07:52:08;26.00;;;19.25;;
11447;SDS011;43755;49.736;8.734;2023-02-11T07:54:09;26.45;;;18.42;;
11447;SDS011;43755;49.736;8.734;2023-02-11T07:56:12;23.85;;;18.55;;
11447;SDS011;43755;49.736;8.734;2023-02-11T07:58:14;26.13;;;17.95;;
11447;SDS011;43755;49.736;8.734;2023-02-11T08:00:17;26.60;;;19.40;;
11447;SDS011;43755;49.736;8.734;2023-02-11T08:02:18;24.23;;;17.85;;
11447;SDS011;43755;49.736;8.734;2023-02-11T08:04:19;24.17;;;19.30;;
11447;SDS011;43755;49.736;8.734;2023-02-11T08:06:22;25.45;;;18.55;;
11447;SDS011;43755;49.736;8.734;2023-02-11T08:08:25;26.42;;;18.85;;
11447;SDS011;43755;49.736;8.734;2023-02-11T08:10:27;26.02;;;18.52;;
11447;SDS011;43755;49.736;8.734;2023-02-11T08:12:28;24.25;;;18.15;;
11447;SDS011;43755;49.736;8.734;2023-02-11T08:14:30;25.83;;;18.83;;
11447;SDS011;43755;49.736;8.734;2023-02-11T08:16:34;23.17;;;17.77;;
11447;SDS011;43755;49.736;8.734;2023-02-11T08:18:37;24.35;;;18.05;;
11447;SDS011;43755;49.736;8.734;2023-02-11T08:20:39;26.35;;;17.83;;
11447;SDS011;43755;49.736;8.734;2023-02-11T08:22:40;25.98;;;18.77;;
11447;SDS011;43755;49.736;8.734;2023-02-11T08:24:42;24.83;;;17.75;;
11447;SDS011;43755;49.736;8.734;2023-02-11T08:26:43;23.63;;;18.88;;
11447;SDS011;43755;49.736;8.734;2023-02-11T08:28:45;23.48;;;17.63;;
11447;SDS011;43755;49.736;8.734;2023-02-11T08:30:47;24.42;;;17.20;;
11447;SDS011;43755;49.736;8.734;2023-02-11T08:32:50;23.85;;;16.92;;
11447;SDS011;43755;49.736;8.734;2023-02-11T08:34:51;23.80;;;17.75;;
11447;SDS011;43755;49.736;8.734;2023-02-11T08:36:53;25.23;;;16.88;;
11447;SDS011;43755;49.736;8.734;2023-02-11T08:38:54;21.98;;;16.85;;
11447;SDS011;43755;49.736;8.734;2023-02-11T08:40:58;21.75;;;17.08;;
11447;SDS011;43755;49.736;8.734;2023-02-11T08:43:00;25.50;;;16.90;;
11447;SDS011;43755;49.736;8.734;2023-02-11T08:45:01;25.38;;;18.05;;
11447;SDS011;43755;49.736;8.734;2023-02-11T08:47:04;23.02;;;17.48;;
11447;SDS011;43755;49.736;8.734;2023-02-11T08:49:06;26.38;;;18.33;;
11447;SDS011;43755;49.736;8.734;2023-02-11T08:51:09;24.65;;;18.60;;
11447;SDS011;43755;49.736;8.734;2023-02-11T08:53:12;23.52;;;17.58;;
11447;SDS011;43755;49.736;8.734;2023-02-11T08:55:13;27.55;;;19.63;;
11447;SDS011;43755;49.736;8.734;2023-02-11T08:57:15;29.98;;;19.38;;
11447;SDS011;43755;49.736;8.734;2023-02-11T08:59:16;27.08;;;19.10;;
11447;SDS011;43755;49.736;8.734;2023-02-11T09:01:18;27.05;;;19.30;;
11447;SDS011;43755;49.736;8.734;2023-02-11T09:03:21;25.52;;;19.05;;
11447;SDS011;43755;49.736;8.734;2023-02-11T09:05:24;27.88;;;18.52;;
11447;SDS011;43755;49.736;8.734;2023-02-11T09:07:26;25.52;;;19.67;;
11447;SDS011;43755;49.736;8.734;2023-02-11T09:09:28;27.27;;;19.40;;
11447;SDS011;43755;49.736;8.734;2023-02-11T09:11:30;27.10;;;19.13;;
11447;SDS011;43755;49.736;8.734;2023-02-11T09:13:33;25.67;;;19.30;;
11447;SDS011;43755;49.736;8.734;2023-02-11T09:15:35;25.45;;;19.50;;
11447;SDS011;43755;49.736;8.734;2023-02-11T09:17:36;26.73;;;19.30;;
11447;SDS011;43755;49.736;8.734;2023-02-11T09:19:38;29.80;;;19.90;;
11447;SDS011;43755;49.736;8.734;2023-02-11T09:21:40;24.70;;;18.70;;
11447;SDS011;43755;49.736;8.734;2023-02-11T09:23:42;27.90;;;20.13;;
11447;SDS011;43755;49.736;8.734;2023-02-11T09:25:46;26.15;;;18.88;;
11447;SDS011;43755;49.736;8.734;2023-02-11T09:27:47;27.58;;;20.52;;
11447;SDS011;43755;49.736;8.734;2023-02-11T09:29:50;25.90;;;18.83;;
11447;SDS011;43755;49.736;8.734;2023-02-11T09:31:51;24.45;;;18.92;;
11447;SDS011;43755;49.736;8.734;2023-02-11T09:33:53;28.90;;;20.05;;
11447;SDS011;43755;49.736;8.734;2023-02-11T09:35:58;25.88;;;19.13;;
11447;SDS011;43755;49.736;8.734;2023-02-11T09:38:02;27.60;;;19.88;;
11447;SDS011;43755;49.736;8.734;2023-02-11T09:40:03;27.33;;;20.48;;
11447;SDS011;43755;49.736;8.734;2023-02-11T09:42:07;28.17;;;19.45;;
11447;SDS011;43755;49.736;8.734;2023-02-11T09:44:30;24.55;;;19.08;;
11447;SDS011;43755;49.736;8.734;2023-02-11T09:46:34;29.05;;;19.92;;
11447;SDS011;43755;49.736;8.734;2023-02-11T09:48:40;28.63;;;19.67;;
11447;SDS011;43755;49.736;8.734;2023-02-11T09:50:43;29.02;;;20.58;;
11447;SDS011;43755;49.736;8.734;2023-02-11T09:52:50;28.35;;;20.45;;
11447;SDS011;43755;49.736;8.734;2023-02-11T09:54:57;29.92;;;20.20;;
11447;SDS011;43755;49.736;8.734;2023-02-11T09:57:01;25.73;;;19.95;;
11447;SDS011;43755;49.736;8.734;2023-02-11T09:59:05;28.50;;;19.90;;
11447;SDS011;43755;49.736;8.734;2023-02-11T10:01:13;29.42;;;21.45;;
11447;SDS011;43755;49.736;8.734;2023-02-11T10:03:43;28.25;;;20.48;;
11447;SDS011;43755;49.736;8.734;2023-02-11T10:06:01;28.30;;;20.30;;
11447;SDS011;43755;49.736;8.734;2023-02-11T10:08:11;27.55;;;20.60;;
11447;SDS011;43755;49.736;8.734;2023-02-11T10:10:25;26.63;;;21.30;;
11447;SDS011;43755;49.736;8.734;2023-02-11T10:12:53;28.08;;;20.85;;
11447;SDS011;43755;49.736;8.734;2023-02-11T10:17:34;29.77;;;21.00;;
11447;SDS011;43755;49.736;8.734;2023-02-11T10:19:46;27.52;;;20.00;;
11447;SDS011;43755;49.736;8.734;2023-02-11T10:21:57;29.10;;;21.50;;
11447;SDS011;43755;49.736;8.734;2023-02-11T10:24:08;31.08;;;21.20;;
11447;SDS011;43755;49.736;8.734;2023-02-11T10:26:14;31.35;;;21.45;;
11447;SDS011;43755;49.736;8.734;2023-02-11T10:28:18;30.52;;;21.35;;
11447;SDS011;43755;49.736;8.734;2023-02-11T10:30:23;29.20;;;21.10;;
11447;SDS011;43755;49.736;8.734;2023-02-11T10:32:31;26.25;;;19.75;;
11447;SDS011;43755;49.736;8.734;2023-02-11T10:34:39;28.10;;;21.05;;
11447;SDS011;43755;49.736;8.734;2023-02-11T10:36:42;29.95;;;20.35;;
11447;SDS011;43755;49.736;8.734;2023-02-11T10:38:44;34.58;;;20.95;;
11447;SDS011;43755;49.736;8.734;2023-02-11T10:40:46;28.23;;;21.00;;
11447;SDS011;43755;49.736;8.734;2023-02-11T10:42:49;28.02;;;20.65;;
11447;SDS011;43755;49.736;8.734;2023-02-11T10:44:56;39.00;;;20.85;;
11447;SDS011;43755;49.736;8.734;2023-02-11T10:46:59;28.95;;;20.58;;
11447;SDS011;43755;49.736;8.734;2023-02-11T10:49:04;37.45;;;21.50;;
11447;SDS011;43755;49.736;8.734;2023-02-11T10:51:06;27.40;;;20.90;;
11447;SDS011;43755;49.736;8.734;2023-02-11T10:53:14;32.33;;;19.98;;
11447;SDS011;43755;49.736;8.734;2023-02-11T10:55:20;27.92;;;20.77;;
11447;SDS011;43755;49.736;8.734;2023-02-11T10:57:25;36.75;;;21.80;;
11447;SDS011;43755;49.736;8.734;2023-02-11T10:59:32;29.10;;;21.13;;
11447;SDS011;43755;49.736;8.734;2023-02-11T11:01:39;28.83;;;21.65;;
11447;SDS011;43755;49.736;8.734;2023-02-11T11:03:46;31.52;;;22.08;;
11447;SDS011;43755;49.736;8.734;2023-02-11T11:05:49;28.65;;;20.73;;
11447;SDS011;43755;49.736;8.734;2023-02-11T11:07:52;26.67;;;20.75;;
11447;SDS011;43755;49.736;8.734;2023-02-11T11:09:56;26.60;;;20.10;;
11447;SDS011;43755;49.736;8.734;2023-02-11T11:12:01;30.30;;;21.02;;
11447;SDS011;43755;49.736;8.734;2023-02-11T11:14:02;31.83;;;21.40;;
11447;SDS011;43755;49.736;8.734;2023-02-11T11:16:15;29.08;;;21.40;;
11447;SDS011;43755;49.736;8.734;2023-02-11T11:18:19;29.23;;;21.48;;
11447;SDS011;43755;49.736;8.734;2023-02-11T11:20:22;27.38;;;21.17;;
11447;SDS011;43755;49.736;8.734;2023-02-11T11:22:26;36.42;;;21.88;;
11447;SDS011;43755;49.736;8.734;2023-02-11T11:24:28;27.15;;;20.73;;
11447;SDS011;43755;49.736;8.734;2023-02-11T11:26:38;25.63;;;19.80;;
11447;SDS011;43755;49.736;8.734;2023-02-11T11:28:42;25.48;;;20.00;;
11447;SDS011;43755;49.736;8.734;2023-02-11T11:30:52;25.17;;;19.77;;
11447;SDS011;43755;49.736;8.734;2023-02-11T11:32:56;24.92;;;19.35;;
11447;SDS011;43755;49.736;8.734;2023-02-11T11:35:00;24.17;;;19.13;;
11447;SDS011;43755;49.736;8.734;2023-02-11T11:37:10;23.67;;;18.90;;
11447;SDS011;43755;49.736;8.734;2023-02-11T11:39:19;30.25;;;20.63;;
11447;SDS011;43755;49.736;8.734;2023-02-11T11:41:24;23.35;;;19.50;;
11447;SDS011;43755;49.736;8.734;2023-02-11T11:43:27;22.83;;;18.95;;
11447;SDS011;43755;49.736;8.734;2023-02-11T11:45:28;24.85;;;19.67;;
11447;SDS011;43755;49.736;8.734;2023-02-11T11:47:35;26.35;;;20.33;;
11447;SDS011;43755;49.736;8.734;2023-02-11T11:49:43;26.25;;;20.95;;
11447;SDS011;43755;49.736;8.734;2023-02-11T11:51:50;25.92;;;20.48;;
11447;SDS011;43755;49.736;8.734;2023-02-11T11:53:59;31.67;;;22.73;;
11447;SDS011;43755;49.736;8.734;2023-02-11T11:56:03;26.63;;;20.75;;
11447;SDS011;43755;49.736;8.734;2023-02-11T11:58:09;31.40;;;22.80;;
11447;SDS011;43755;49.736;8.734;2023-02-11T12:00:16;27.45;;;21.10;;
11447;SDS011;43755;49.736;8.734;2023-02-11T12:02:44;27.98;;;21.58;;
11447;SDS011;43755;49.736;8.734;2023-02-11T12:05:01;23.98;;;19.50;;
11447;SDS011;43755;49.736;8.734;2023-02-11T12:07:15;25.25;;;19.95;;
11447;SDS011;43755;49.736;8.734;2023-02-11T12:09:29;24.95;;;19.65;;
11447;SDS011;43755;49.736;8.734;2023-02-11T12:11:42;28.92;;;21.42;;
11447;SDS011;43755;49.736;8.734;2023-02-11T12:13:59;26.15;;;20.58;;
11447;SDS011;43755;49.736;8.734;2023-02-11T12:16:16;29.02;;;21.45;;
11447;SDS011;43755;49.736;8.734;2023-02-11T12:18:27;30.00;;;22.25;;
11447;SDS011;43755;49.736;8.734;2023-02-11T12:20:45;29.05;;;21.25;;